createdAt,value
2022-10-25T00:00:37.511Z,97866.41
2022-10-25T00:04:40.542Z,97865.44
2022-10-25T00:08:44.134Z,97865.09
2022-10-25T00:12:48.894Z,97871.44
2022-10-25T00:16:52.405Z,97861.63
2022-10-25T00:20:55.877Z,97853.50
2022-10-25T00:24:59.511Z,97852.31
2022-10-25T00:29:04.235Z,97866.69
2022-10-25T00:33:07.722Z,97861.13
2022-10-25T00:37:10.970Z,97864.41
2022-10-25T00:41:15.971Z,97865.19
2022-10-25T00:45:24.634Z,97868.63
2022-10-25T00:49:28.453Z,97867.97
2022-10-25T00:53:37.179Z,97884.00
2022-10-25T00:57:44.663Z,97873.09
2022-10-25T01:01:50.050Z,97874.88
2022-10-25T01:05:54.458Z,97890.09
2022-10-25T01:09:58.528Z,97895.81
2022-10-25T01:14:01.468Z,97901.69
2022-10-25T01:18:12.365Z,97894.84
2022-10-25T01:22:24.480Z,97891.56
2022-10-25T01:26:54.611Z,97891.25
2022-10-25T01:31:19.558Z,97881.47
2022-10-25T01:35:29.731Z,97889.81
2022-10-25T01:39:36.249Z,97874.31
2022-10-25T01:43:47.317Z,97875.13
2022-10-25T01:47:57.437Z,97876.91
2022-10-25T01:52:00.918Z,97886.41
2022-10-25T01:56:06.829Z,97886.41
2022-10-25T02:00:13.274Z,97883.47
2022-10-25T02:04:22.625Z,97888.38
2022-10-25T02:08:33.234Z,97889.31
2022-10-25T02:12:49.645Z,97878.84
2022-10-25T02:16:58.944Z,97878.00
2022-10-25T02:21:07.105Z,97876.84
2022-10-25T02:25:11.066Z,97889.09
2022-10-25T02:33:36.740Z,97877.81
2022-10-25T02:37:41.213Z,97872.94
2022-10-25T02:41:44.697Z,97875.88
2022-10-25T02:45:48.334Z,97862.94
2022-10-25T02:49:51.883Z,97880.91
2022-10-25T02:53:56.464Z,97881.72
2022-10-25T02:58:00.555Z,97888.13
2022-10-25T03:02:03.616Z,97878.81
2022-10-25T03:06:08.286Z,97894.84
2022-10-25T03:10:12.819Z,97897.13
2022-10-25T03:14:16.584Z,97909.06
2022-10-25T03:18:19.646Z,97909.75
2022-10-25T03:22:22.989Z,97909.59
2022-10-25T03:26:27.542Z,97912.22
2022-10-25T03:30:31.951Z,97917.78
2022-10-25T03:34:35.771Z,97918.13
2022-10-25T03:38:38.777Z,97922.03
2022-10-25T03:42:43.925Z,97934.44
2022-10-25T03:46:46.921Z,97929.03
2022-10-25T03:50:50.355Z,97962.81
2022-10-25T03:54:53.310Z,97947.28
2022-10-25T03:58:58.245Z,97951.34
2022-10-25T04:03:03.195Z,97957.84
2022-10-25T04:07:06.361Z,97952.63
2022-10-25T04:11:09.945Z,97951.31
2022-10-25T04:15:15.179Z,97962.06
2022-10-25T04:19:19.010Z,97964.66
2022-10-25T04:23:21.990Z,97969.88
2022-10-25T04:27:25.596Z,97968.91
2022-10-25T04:31:30.056Z,97973.31
2022-10-25T04:35:33.509Z,97983.25
2022-10-25T04:39:36.744Z,97974.75
2022-10-25T04:43:40.175Z,97975.09
2022-10-25T04:47:44.542Z,97970.19
2022-10-25T04:51:48.081Z,97979.28
2022-10-25T04:55:57.363Z,97979.09
2022-10-25T05:00:00.886Z,97966.34
2022-10-25T05:04:06.170Z,97967.13
2022-10-25T05:08:09.836Z,97981.09
2022-10-25T05:12:13.572Z,97993.78
2022-10-25T05:16:21.954Z,97990.31
2022-10-25T05:20:26.384Z,97979.19
2022-10-25T05:24:30.130Z,97984.16
2022-10-25T05:28:33.609Z,97985.75
2022-10-25T05:32:37.119Z,97997.75
2022-10-25T05:36:41.765Z,97999.69
2022-10-25T05:40:45.279Z,98008.19
2022-10-25T05:44:48.289Z,98008.91
2022-10-25T05:48:53.767Z,98015.00
2022-10-25T05:52:58.787Z,98021.75
2022-10-25T05:57:01.888Z,98026.69
2022-10-25T06:01:05.504Z,98027.09
2022-10-25T06:05:09.312Z,98028.97
2022-10-25T06:09:14.612Z,98022.41
2022-10-25T06:13:17.578Z,98024.28
2022-10-25T06:17:21.039Z,98027.78
2022-10-25T06:21:26.062Z,98042.69
2022-10-25T06:25:31.147Z,98039.97
2022-10-25T06:29:34.226Z,98045.84
2022-10-25T06:33:37.847Z,98050.09
2022-10-25T06:37:40.864Z,98059.22
2022-10-25T06:41:45.215Z,98061.75
2022-10-25T06:45:48.419Z,98060.47
2022-10-25T06:49:51.976Z,98066.69
2022-10-25T06:53:56.723Z,98060.25
2022-10-25T06:58:01.160Z,98073.00
2022-10-25T07:02:04.678Z,98070.00
2022-10-25T07:06:11.249Z,98070.66
2022-10-25T07:10:14.342Z,98084.53
2022-10-25T07:14:19.191Z,98083.66
2022-10-25T07:18:22.192Z,98089.97
2022-10-25T07:22:25.213Z,98062.25
2022-10-25T07:26:31.218Z,98085.25
2022-10-25T07:30:36.193Z,98087.69
2022-10-25T07:34:39.210Z,98077.00
2022-10-25T07:38:42.694Z,98084.25
2022-10-25T07:42:46.300Z,98085.28
2022-10-25T07:46:52.353Z,98073.50
2022-10-25T07:50:55.457Z,98079.22
2022-10-25T07:54:58.990Z,98068.66
2022-10-25T07:59:02.368Z,98084.03
2022-10-25T08:03:07.450Z,98095.53
2022-10-25T08:07:11.359Z,98088.59
2022-10-25T08:11:14.487Z,98088.66
2022-10-25T08:15:18.895Z,98083.97
2022-10-25T08:19:23.547Z,98088.00
2022-10-25T08:23:27.310Z,98065.84
2022-10-25T08:27:30.832Z,98071.00
2022-10-25T08:31:33.925Z,98082.03
2022-10-25T08:35:38.473Z,98082.41
2022-10-25T08:39:41.890Z,98085.00
2022-10-25T08:44:09.580Z,98073.38
2022-10-25T08:48:18.071Z,98077.56
2022-10-25T08:52:31.458Z,98064.38
2022-10-25T08:56:42.627Z,98071.50
2022-10-25T09:00:54.336Z,98073.41
2022-10-25T09:04:57.393Z,98079.19
2022-10-25T09:09:16.517Z,98082.44
2022-10-25T09:13:29.776Z,98073.66
2022-10-25T09:17:45.811Z,98066.53
2022-10-25T09:21:52.746Z,98066.53
2022-10-25T09:26:05.112Z,98062.19
2022-10-25T09:30:10.462Z,98062.31
2022-10-25T09:34:15.619Z,98070.75
2022-10-25T09:38:23.186Z,98065.22
2022-10-25T09:42:35.862Z,98070.66
2022-10-25T09:46:41.530Z,98064.09
2022-10-25T09:50:50.841Z,98069.38
2022-10-25T09:54:57.250Z,98064.44
2022-10-25T09:59:04.980Z,98076.84
2022-10-25T10:03:11.209Z,98069.72
2022-10-25T10:07:20.333Z,98071.69
2022-10-25T10:11:23.766Z,98067.63
2022-10-25T10:15:32.409Z,98056.63
2022-10-25T10:19:35.930Z,98051.31
2022-10-25T10:23:47.447Z,98046.19
2022-10-25T10:27:52.167Z,98053.47
2022-10-25T10:31:59.851Z,98054.84
2022-10-25T10:36:24.831Z,98055.16
2022-10-25T10:40:28.752Z,98048.81
2022-10-25T10:44:35.181Z,98055.09
2022-10-25T10:48:43.267Z,98052.13
2022-10-25T10:52:47.974Z,98046.41
2022-10-25T10:56:56.416Z,98038.44
2022-10-25T11:01:02.689Z,98031.69
2022-10-25T11:05:21.413Z,98030.00
2022-10-25T11:09:25.936Z,98023.59
2022-10-25T11:13:29.438Z,98029.44
2022-10-25T11:17:37.828Z,98024.03
2022-10-25T11:22:19.306Z,98015.72
2022-10-25T11:26:32.785Z,98021.91
2022-10-25T11:30:44.222Z,98020.78
2022-10-25T11:34:55.569Z,98021.97
2022-10-25T11:39:15.106Z,98021.06
2022-10-25T11:43:46.436Z,98022.25
2022-10-25T11:48:02.213Z,98017.69
2022-10-25T11:52:24.256Z,98022.66
2022-10-25T11:56:38.595Z,98018.66
2022-10-25T12:00:53.985Z,98018.94
2022-10-25T12:05:10.629Z,97999.81
2022-10-25T12:09:28.055Z,98000.66
2022-10-25T12:13:36.811Z,98004.94
2022-10-25T12:17:40.715Z,97995.81
2022-10-25T12:21:47.909Z,97997.75
2022-10-25T12:25:54.126Z,97993.03
2022-10-25T12:30:04.323Z,97991.06
2022-10-25T12:34:13.249Z,97995.00
2022-10-25T12:38:22.642Z,97994.41
2022-10-25T12:42:31.168Z,97988.56
2022-10-25T12:47:04.534Z,97986.34
2022-10-25T12:51:25.243Z,97985.41
2022-10-25T12:55:42.688Z,97987.28
2022-10-25T12:59:59.717Z,97985.91
2022-10-25T13:04:31.545Z,97989.25
2022-10-25T13:08:35.556Z,97977.94
2022-10-25T13:12:41.591Z,97981.28
2022-10-25T13:16:45.294Z,97976.19
2022-10-25T13:20:52.174Z,97978.16
2022-10-25T13:24:55.376Z,97971.78
2022-10-25T13:29:00.796Z,97964.03
2022-10-25T13:33:33.734Z,97981.97
2022-10-25T13:37:44.356Z,97970.41
2022-10-25T13:41:48.112Z,97975.72
2022-10-25T13:45:56.136Z,97978.81
2022-10-25T13:50:00.201Z,97972.69
2022-10-25T13:54:09.707Z,97971.88
2022-10-25T13:58:41.838Z,97981.94
2022-10-25T14:03:34.713Z,97982.75
2022-10-25T14:07:51.377Z,97982.50
2022-10-25T14:12:11.945Z,97983.56
2022-10-25T14:16:23.884Z,97977.19
2022-10-25T14:20:31.053Z,97972.81
2022-10-25T14:24:35.554Z,97979.16
2022-10-25T14:28:41.724Z,97981.97
2022-10-25T14:32:52.354Z,97979.41
2022-10-25T14:36:57.586Z,97979.16
2022-10-25T14:45:21.724Z,97970.72
2022-10-25T14:49:25.348Z,97969.09
2022-10-25T14:53:30.480Z,97960.06
2022-10-25T14:57:34.843Z,97961.47
2022-10-25T15:01:40.403Z,97962.84
2022-10-25T15:05:43.920Z,97952.38
2022-10-25T15:09:50.887Z,97956.06
2022-10-25T15:13:54.957Z,97955.88
2022-10-25T15:18:00.650Z,97953.28
2022-10-25T15:22:10.825Z,97941.50
2022-10-25T15:26:29.976Z,97939.53
2022-10-25T15:30:38.096Z,97943.91
2022-10-25T15:34:44.071Z,97946.19
2022-10-25T15:39:07.885Z,97939.16
2022-10-25T15:43:10.157Z,97943.25
2022-10-25T15:47:28.716Z,97931.13
2022-10-25T15:51:35.998Z,97940.84
2022-10-25T15:55:39.301Z,97949.72
2022-10-25T15:59:43.150Z,97952.00
2022-10-25T16:03:46.323Z,97954.84
2022-10-25T16:07:51.780Z,97954.81
2022-10-25T16:11:56.102Z,97958.81
2022-10-25T16:16:04.412Z,97961.56
2022-10-25T16:20:17.374Z,97962.03
2022-10-25T16:24:22.097Z,97977.53
2022-10-25T16:32:29.522Z,97981.66
2022-10-25T16:36:32.786Z,97977.09
2022-10-25T16:40:38.479Z,97989.47
2022-10-25T16:44:41.403Z,97983.47
2022-10-25T16:48:44.898Z,97991.25
2022-10-25T16:52:48.038Z,97985.00
2022-10-25T16:56:53.396Z,97992.09
2022-10-25T17:00:59.876Z,97988.69
2022-10-25T17:05:03.465Z,97999.22
2022-10-25T17:09:06.925Z,97996.44
2022-10-25T17:13:16.646Z,98004.59
2022-10-25T17:17:19.842Z,98011.75
2022-10-25T17:21:24.666Z,98002.97
2022-10-25T17:25:27.842Z,98014.19
2022-10-25T17:29:33.146Z,98020.13
2022-10-25T17:33:36.276Z,98010.31
2022-10-25T17:37:43.302Z,98017.56
2022-10-25T17:41:46.604Z,98007.78
2022-10-25T17:45:51.886Z,98014.22
2022-10-25T17:50:00.808Z,98012.91
2022-10-25T17:54:03.978Z,98005.59
2022-10-25T17:58:07.519Z,98011.22
2022-10-25T18:02:13.630Z,98022.84
2022-10-25T18:06:19.860Z,98022.06
2022-10-25T18:10:23.547Z,98015.38
2022-10-25T18:14:26.744Z,98013.53
2022-10-25T18:18:32.537Z,98016.16
2022-10-25T18:22:35.696Z,98007.03
2022-10-25T18:26:39.326Z,98010.00
2022-10-25T18:30:42.962Z,98008.72
2022-10-25T18:34:48.260Z,98010.69
2022-10-25T18:38:51.990Z,98005.81
2022-10-25T18:42:55.837Z,98011.56
2022-10-25T18:46:59.442Z,98005.88
2022-10-25T18:51:08.659Z,97999.38
2022-10-25T18:55:12.794Z,98003.50
2022-10-25T18:59:16.127Z,97998.47
2022-10-25T19:03:20.064Z,97996.72
2022-10-25T19:07:25.197Z,97995.97
2022-10-25T19:11:29.163Z,97996.22
2022-10-25T19:15:32.274Z,97985.28
2022-10-25T19:19:36.039Z,97989.56
2022-10-25T19:23:42.912Z,97984.03
2022-10-25T19:27:53.149Z,97993.38
2022-10-25T19:31:58.170Z,97995.91
2022-10-25T19:36:09.669Z,97999.34
2022-10-25T19:40:14.947Z,97995.50
2022-10-25T19:44:18.587Z,97992.06
2022-10-25T19:48:22.345Z,97991.63
2022-10-25T19:52:25.611Z,98001.31
2022-10-25T19:56:29.974Z,98005.59
2022-10-25T20:00:34.304Z,97999.56
2022-10-25T20:04:37.396Z,97999.25
2022-10-25T20:08:42.568Z,97995.50
2022-10-25T20:12:47.295Z,97998.13
2022-10-25T20:16:51.164Z,97993.22
2022-10-25T20:20:59.840Z,97989.97
2022-10-25T20:25:04.185Z,97987.84
2022-10-25T20:29:17.112Z,97983.09
2022-10-25T20:33:23.673Z,97985.22
2022-10-25T20:37:26.827Z,97988.50
2022-10-25T20:41:31.956Z,97997.97
2022-10-25T20:45:37.026Z,97987.66
2022-10-25T20:49:40.467Z,97999.25
2022-10-25T20:53:44.753Z,98002.34
2022-10-25T20:57:48.474Z,97997.59
2022-10-25T21:01:53.673Z,97989.44
2022-10-25T21:05:58.759Z,97994.50
2022-10-25T21:10:02.627Z,97995.47
2022-10-25T21:14:05.653Z,97991.53
2022-10-25T21:18:10.620Z,97996.59
2022-10-25T21:22:13.697Z,97997.91
2022-10-25T21:26:17.390Z,98001.00
2022-10-25T21:30:20.372Z,97995.44
2022-10-25T21:34:25.174Z,98000.66
2022-10-25T21:38:28.210Z,97999.16
2022-10-25T21:42:32.339Z,97989.69
2022-10-25T21:46:35.356Z,97990.69
2022-10-25T21:50:40.693Z,97978.28
2022-10-25T21:54:43.780Z,97982.03
2022-10-25T21:58:49.589Z,97985.78
2022-10-25T22:02:52.601Z,97981.72
2022-10-25T22:06:58.848Z,97976.50
2022-10-25T22:11:03.872Z,97973.22
2022-10-25T22:15:08.398Z,97986.69
2022-10-25T22:19:16.205Z,97970.19
2022-10-25T22:23:21.060Z,97977.34
2022-10-25T22:27:24.036Z,97973.59
2022-10-25T22:31:29.370Z,97973.09
2022-10-25T22:35:35.356Z,97970.81
2022-10-25T22:39:40.195Z,97961.66
2022-10-25T22:43:43.910Z,97957.72
2022-10-25T22:47:47.552Z,97953.63
2022-10-25T22:51:50.726Z,97952.81
2022-10-25T22:56:00.319Z,97950.19
2022-10-25T23:00:03.393Z,97949.56
2022-10-25T23:04:08.709Z,97958.69
2022-10-25T23:08:11.824Z,97954.09
2022-10-25T23:12:16.972Z,97952.63
2022-10-25T23:16:20.653Z,97950.47
2022-10-25T23:20:24.502Z,97959.25
2022-10-25T23:24:27.969Z,97954.69
2022-10-25T23:28:34.149Z,97960.53
2022-10-25T23:32:37.735Z,97960.53
2022-10-25T23:36:41.508Z,97948.47
2022-10-25T23:40:47.069Z,97944.09
2022-10-25T23:44:51.970Z,97950.94
2022-10-25T23:48:55.080Z,97957.94
2022-10-25T23:52:58.213Z,97959.75
2022-10-25T23:57:01.764Z,97952.06
